sensor_id;sensor_type;location;lat;lon;timestamp;temperature;humidity
17415;DHT22;8825;48.086;16.426;2022-12-18T00:01:29;3.40;65.30
17415;DHT22;8825;48.086;16.426;2022-12-18T00:04:03;3.40;65.20
17415;DHT22;8825;48.086;16.426;2022-12-18T00:06:32;3.40;65.10
17415;DHT22;8825;48.086;16.426;2022-12-18T00:09:00;3.40;65.10
17415;DHT22;8825;48.086;16.426;2022-12-18T00:11:30;3.30;65.00
17415;DHT22;8825;48.086;16.426;2022-12-18T00:13:59;3.30;65.10
17415;DHT22;8825;48.086;16.426;2022-12-18T00:16:28;3.30;65.00
17415;DHT22;8825;48.086;16.426;2022-12-18T00:18:59;3.30;65.00
17415;DHT22;8825;48.086;16.426;2022-12-18T00:21:29;3.30;64.90
17415;DHT22;8825;48.086;16.426;2022-12-18T00:23:57;3.20;64.60
17415;DHT22;8825;48.086;16.426;2022-12-18T00:26:30;3.20;64.60
17415;DHT22;8825;48.086;16.426;2022-12-18T00:29:07;3.20;64.50
17415;DHT22;8825;48.086;16.426;2022-12-18T00:31:35;3.10;64.50
17415;DHT22;8825;48.086;16.426;2022-12-18T00:34:03;3.10;64.50
17415;DHT22;8825;48.086;16.426;2022-12-18T00:36:33;3.10;64.70
17415;DHT22;8825;48.086;16.426;2022-12-18T00:39:03;3.00;65.40
17415;DHT22;8825;48.086;16.426;2022-12-18T00:41:31;2.90;64.20
17415;DHT22;8825;48.086;16.426;2022-12-18T00:44:18;2.90;64.10
17415;DHT22;8825;48.086;16.426;2022-12-18T00:46:47;2.80;64.90
17415;DHT22;8825;48.086;16.426;2022-12-18T00:49:16;2.80;64.00
17415;DHT22;8825;48.086;16.426;2022-12-18T00:51:44;2.70;63.80
17415;DHT22;8825;48.086;16.426;2022-12-18T00:54:12;2.70;63.80
17415;DHT22;8825;48.086;16.426;2022-12-18T00:56:39;2.60;63.70
17415;DHT22;8825;48.086;16.426;2022-12-18T00:59:07;2.60;63.70
17415;DHT22;8825;48.086;16.426;2022-12-18T01:01:35;2.60;63.90
17415;DHT22;8825;48.086;16.426;2022-12-18T01:04:03;2.50;63.90
17415;DHT22;8825;48.086;16.426;2022-12-18T01:06:31;2.50;63.90
17415;DHT22;8825;48.086;16.426;2022-12-18T01:08:58;2.50;63.90
17415;DHT22;8825;48.086;16.426;2022-12-18T01:11:26;2.40;64.60
17415;DHT22;8825;48.086;16.426;2022-12-18T01:13:54;2.40;63.80
17415;DHT22;8825;48.086;16.426;2022-12-18T01:16:22;2.40;63.80
17415;DHT22;8825;48.086;16.426;2022-12-18T01:18:52;2.30;64.60
17415;DHT22;8825;48.086;16.426;2022-12-18T01:21:21;2.30;63.80
17415;DHT22;8825;48.086;16.426;2022-12-18T01:23:51;2.20;63.60
17415;DHT22;8825;48.086;16.426;2022-12-18T01:26:19;2.20;63.40
17415;DHT22;8825;48.086;16.426;2022-12-18T01:28:47;2.20;63.20
17415;DHT22;8825;48.086;16.426;2022-12-18T01:33:46;2.00;63.30
17415;DHT22;8825;48.086;16.426;2022-12-18T01:36:19;2.00;63.40
17415;DHT22;8825;48.086;16.426;2022-12-18T01:38:47;1.90;63.40
17415;DHT22;8825;48.086;16.426;2022-12-18T01:41:17;1.90;63.50
17415;DHT22;8825;48.086;16.426;2022-12-18T01:43:53;1.80;63.40
17415;DHT22;8825;48.086;16.426;2022-12-18T01:46:23;1.70;63.60
17415;DHT22;8825;48.086;16.426;2022-12-18T01:48:59;1.70;63.70
17415;DHT22;8825;48.086;16.426;2022-12-18T01:51:22;1.60;64.00
17415;DHT22;8825;48.086;16.426;2022-12-18T01:53:50;1.60;64.20
17415;DHT22;8825;48.086;16.426;2022-12-18T01:56:19;1.50;64.40
17415;DHT22;8825;48.086;16.426;2022-12-18T01:59:04;1.50;64.50
17415;DHT22;8825;48.086;16.426;2022-12-18T02:01:33;1.50;64.60
17415;DHT22;8825;48.086;16.426;2022-12-18T02:04:23;1.50;64.70
17415;DHT22;8825;48.086;16.426;2022-12-18T02:09:30;1.40;65.00
17415;DHT22;8825;48.086;16.426;2022-12-18T02:12:13;1.30;65.10
17415;DHT22;8825;48.086;16.426;2022-12-18T02:14:49;1.30;65.30
17415;DHT22;8825;48.086;16.426;2022-12-18T02:28:08;1.30;65.60
17415;DHT22;8825;48.086;16.426;2022-12-18T02:30:37;1.30;65.70
17415;DHT22;8825;48.086;16.426;2022-12-18T02:33:07;1.30;65.80
17415;DHT22;8825;48.086;16.426;2022-12-18T02:35:36;1.30;66.70
17415;DHT22;8825;48.086;16.426;2022-12-18T02:38:06;1.30;65.90
17415;DHT22;8825;48.086;16.426;2022-12-18T02:40:34;1.30;65.80
17415;DHT22;8825;48.086;16.426;2022-12-18T02:43:11;1.30;65.80
17415;DHT22;8825;48.086;16.426;2022-12-18T02:45:53;1.20;65.60
17415;DHT22;8825;48.086;16.426;2022-12-18T02:48:24;1.20;65.60
17415;DHT22;8825;48.086;16.426;2022-12-18T02:50:59;1.20;65.60
17415;DHT22;8825;48.086;16.426;2022-12-18T02:56:22;1.10;65.80
17415;DHT22;8825;48.086;16.426;2022-12-18T02:59:11;1.10;65.80
17415;DHT22;8825;48.086;16.426;2022-12-18T03:04:36;1.00;66.00
17415;DHT22;8825;48.086;16.426;2022-12-18T03:06:49;1.00;66.10
17415;DHT22;8825;48.086;16.426;2022-12-18T03:09:19;1.00;66.20
17415;DHT22;8825;48.086;16.426;2022-12-18T03:11:50;1.00;66.30
17415;DHT22;8825;48.086;16.426;2022-12-18T03:14:37;1.00;66.40
17415;DHT22;8825;48.086;16.426;2022-12-18T03:17:07;0.90;66.20
17415;DHT22;8825;48.086;16.426;2022-12-18T03:19:36;1.00;66.30
17415;DHT22;8825;48.086;16.426;2022-12-18T03:22:07;1.00;66.30
17415;DHT22;8825;48.086;16.426;2022-12-18T03:24:36;1.00;66.20
17415;DHT22;8825;48.086;16.426;2022-12-18T03:27:09;1.10;66.20
17415;DHT22;8825;48.086;16.426;2022-12-18T03:29:38;1.10;66.10
17415;DHT22;8825;48.086;16.426;2022-12-18T03:32:12;1.00;65.80
17415;DHT22;8825;48.086;16.426;2022-12-18T03:35:00;1.00;65.60
17415;DHT22;8825;48.086;16.426;2022-12-18T03:37:29;1.00;65.30
17415;DHT22;8825;48.086;16.426;2022-12-18T03:39:56;0.90;65.40
17415;DHT22;8825;48.086;16.426;2022-12-18T03:42:48;1.00;65.50
17415;DHT22;8825;48.086;16.426;2022-12-18T03:45:22;0.90;65.40
17415;DHT22;8825;48.086;16.426;2022-12-18T03:48:08;0.90;65.30
17415;DHT22;8825;48.086;16.426;2022-12-18T03:50:44;0.90;65.30
17415;DHT22;8825;48.086;16.426;2022-12-18T03:55:49;0.80;65.20
17415;DHT22;8825;48.086;16.426;2022-12-18T03:58:20;0.80;65.30
17415;DHT22;8825;48.086;16.426;2022-12-18T04:00:50;0.80;65.40
17415;DHT22;8825;48.086;16.426;2022-12-18T04:03:20;0.70;65.30
17415;DHT22;8825;48.086;16.426;2022-12-18T04:05:50;0.70;65.40
17415;DHT22;8825;48.086;16.426;2022-12-18T04:08:19;0.70;65.50
17415;DHT22;8825;48.086;16.426;2022-12-18T04:10:47;0.70;65.60
17415;DHT22;8825;48.086;16.426;2022-12-18T04:15:51;0.70;65.60
17415;DHT22;8825;48.086;16.426;2022-12-18T04:18:19;0.60;65.40
17415;DHT22;8825;48.086;16.426;2022-12-18T04:20:47;0.60;65.40
17415;DHT22;8825;48.086;16.426;2022-12-18T04:23:14;0.60;65.40
17415;DHT22;8825;48.086;16.426;2022-12-18T04:25:41;0.60;65.40
17415;DHT22;8825;48.086;16.426;2022-12-18T04:28:09;0.60;65.40
17415;DHT22;8825;48.086;16.426;2022-12-18T04:30:37;0.50;65.30
17415;DHT22;8825;48.086;16.426;2022-12-18T04:33:08;0.50;65.20
17415;DHT22;8825;48.086;16.426;2022-12-18T04:35:33;0.50;65.10
17415;DHT22;8825;48.086;16.426;2022-12-18T04:38:01;0.50;65.20
17415;DHT22;8825;48.086;16.426;2022-12-18T04:40:28;0.50;65.30
17415;DHT22;8825;48.086;16.426;2022-12-18T04:42:56;0.40;66.30
17415;DHT22;8825;48.086;16.426;2022-12-18T04:45:23;0.40;65.50
17415;DHT22;8825;48.086;16.426;2022-12-18T04:47:51;0.40;65.50
17415;DHT22;8825;48.086;16.426;2022-12-18T04:50:18;0.40;65.60
17415;DHT22;8825;48.086;16.426;2022-12-18T04:52:46;0.40;65.30
17415;DHT22;8825;48.086;16.426;2022-12-18T04:55:13;0.10;64.90
17415;DHT22;8825;48.086;16.426;2022-12-18T04:57:41;0.00;65.20
17415;DHT22;8825;48.086;16.426;2022-12-18T05:00:09;-0.10;65.60
17415;DHT22;8825;48.086;16.426;2022-12-18T05:02:37;-0.10;65.90
17415;DHT22;8825;48.086;16.426;2022-12-18T05:05:05;-0.10;66.10
17415;DHT22;8825;48.086;16.426;2022-12-18T05:07:33;-0.10;66.30
17415;DHT22;8825;48.086;16.426;2022-12-18T05:10:01;-0.10;66.40
17415;DHT22;8825;48.086;16.426;2022-12-18T05:12:29;-0.10;66.50
17415;DHT22;8825;48.086;16.426;2022-12-18T05:14:57;-0.10;66.60
17415;DHT22;8825;48.086;16.426;2022-12-18T05:17:25;-0.10;66.50
17415;DHT22;8825;48.086;16.426;2022-12-18T05:19:53;-0.10;66.30
17415;DHT22;8825;48.086;16.426;2022-12-18T05:22:20;-0.10;66.50
17415;DHT22;8825;48.086;16.426;2022-12-18T05:24:48;-0.10;66.60
17415;DHT22;8825;48.086;16.426;2022-12-18T05:27:15;-0.10;66.60
17415;DHT22;8825;48.086;16.426;2022-12-18T05:29:43;-0.10;66.70
17415;DHT22;8825;48.086;16.426;2022-12-18T05:32:10;-0.20;66.70
17415;DHT22;8825;48.086;16.426;2022-12-18T05:34:38;-0.10;66.60
17415;DHT22;8825;48.086;16.426;2022-12-18T05:37:05;-0.10;66.60
17415;DHT22;8825;48.086;16.426;2022-12-18T05:39:32;-0.20;66.70
17415;DHT22;8825;48.086;16.426;2022-12-18T05:42:00;-0.20;66.70
17415;DHT22;8825;48.086;16.426;2022-12-18T05:44:27;-0.20;66.80
17415;DHT22;8825;48.086;16.426;2022-12-18T05:46:55;-0.20;67.00
17415;DHT22;8825;48.086;16.426;2022-12-18T05:49:22;-0.20;66.90
17415;DHT22;8825;48.086;16.426;2022-12-18T05:51:50;-0.20;66.80
17415;DHT22;8825;48.086;16.426;2022-12-18T05:54:17;-0.20;66.80
17415;DHT22;8825;48.086;16.426;2022-12-18T05:56:45;-0.20;66.90
17415;DHT22;8825;48.086;16.426;2022-12-18T05:59:13;-0.20;66.90
17415;DHT22;8825;48.086;16.426;2022-12-18T06:01:40;-0.20;66.80
17415;DHT22;8825;48.086;16.426;2022-12-18T06:04:09;-0.30;66.70
17415;DHT22;8825;48.086;16.426;2022-12-18T06:06:37;-0.30;66.70
17415;DHT22;8825;48.086;16.426;2022-12-18T06:09:04;-0.30;66.60
17415;DHT22;8825;48.086;16.426;2022-12-18T06:11:37;-0.30;66.60
17415;DHT22;8825;48.086;16.426;2022-12-18T06:14:05;-0.30;66.50
17415;DHT22;8825;48.086;16.426;2022-12-18T06:16:33;-0.30;66.50
17415;DHT22;8825;48.086;16.426;2022-12-18T06:19:02;-0.30;67.40
17415;DHT22;8825;48.086;16.426;2022-12-18T06:21:31;-0.30;66.80
17415;DHT22;8825;48.086;16.426;2022-12-18T06:24:00;-0.30;66.90
17415;DHT22;8825;48.086;16.426;2022-12-18T06:26:27;-0.40;66.90
17415;DHT22;8825;48.086;16.426;2022-12-18T06:28:55;-0.40;67.10
17415;DHT22;8825;48.086;16.426;2022-12-18T06:31:22;-0.30;67.10
17415;DHT22;8825;48.086;16.426;2022-12-18T06:33:50;-0.30;67.00
17415;DHT22;8825;48.086;16.426;2022-12-18T06:36:18;-0.40;66.90
17415;DHT22;8825;48.086;16.426;2022-12-18T06:38:46;-0.40;66.60
17415;DHT22;8825;48.086;16.426;2022-12-18T06:41:16;-0.50;66.40
17415;DHT22;8825;48.086;16.426;2022-12-18T06:43:44;-0.50;66.40
17415;DHT22;8825;48.086;16.426;2022-12-18T06:46:12;-0.50;66.60
17415;DHT22;8825;48.086;16.426;2022-12-18T06:48:40;-0.60;66.60
17415;DHT22;8825;48.086;16.426;2022-12-18T06:51:08;-0.60;66.60
17415;DHT22;8825;48.086;16.426;2022-12-18T06:53:35;-0.60;66.50
17415;DHT22;8825;48.086;16.426;2022-12-18T06:56:05;-0.60;66.60
17415;DHT22;8825;48.086;16.426;2022-12-18T06:58:33;-0.60;66.70
17415;DHT22;8825;48.086;16.426;2022-12-18T07:01:02;-0.60;66.70
17415;DHT22;8825;48.086;16.426;2022-12-18T07:06:21;-0.60;66.70
17415;DHT22;8825;48.086;16.426;2022-12-18T07:08:50;-0.60;66.60
17415;DHT22;8825;48.086;16.426;2022-12-18T07:11:19;-0.60;66.60
17415;DHT22;8825;48.086;16.426;2022-12-18T07:13:47;-0.60;66.60
17415;DHT22;8825;48.086;16.426;2022-12-18T07:16:17;-0.60;66.60
17415;DHT22;8825;48.086;16.426;2022-12-18T07:18:45;-0.60;66.50
17415;DHT22;8825;48.086;16.426;2022-12-18T07:21:15;-0.60;66.50
17415;DHT22;8825;48.086;16.426;2022-12-18T07:23:43;-0.60;66.40
17415;DHT22;8825;48.086;16.426;2022-12-18T07:26:13;-0.70;66.30
17415;DHT22;8825;48.086;16.426;2022-12-18T07:28:41;-0.80;66.40
17415;DHT22;8825;48.086;16.426;2022-12-18T07:31:12;-0.80;66.50
17415;DHT22;8825;48.086;16.426;2022-12-18T07:33:39;-0.80;66.60
17415;DHT22;8825;48.086;16.426;2022-12-18T07:36:08;-0.80;66.70
17415;DHT22;8825;48.086;16.426;2022-12-18T07:38:36;-0.80;66.80
17415;DHT22;8825;48.086;16.426;2022-12-18T07:41:06;-0.90;67.20
17415;DHT22;8825;48.086;16.426;2022-12-18T07:43:35;-0.90;67.40
17415;DHT22;8825;48.086;16.426;2022-12-18T07:46:02;-1.00;67.60
17415;DHT22;8825;48.086;16.426;2022-12-18T07:48:31;-0.90;67.80
17415;DHT22;8825;48.086;16.426;2022-12-18T07:51:02;-0.90;68.10
17415;DHT22;8825;48.086;16.426;2022-12-18T07:53:31;-0.80;68.20
17415;DHT22;8825;48.086;16.426;2022-12-18T07:56:00;-0.80;68.30
17415;DHT22;8825;48.086;16.426;2022-12-18T07:58:29;-0.70;68.50
17415;DHT22;8825;48.086;16.426;2022-12-18T08:01:07;-0.60;68.60
17415;DHT22;8825;48.086;16.426;2022-12-18T08:03:36;-0.50;69.50
17415;DHT22;8825;48.086;16.426;2022-12-18T08:06:06;-0.40;68.70
17415;DHT22;8825;48.086;16.426;2022-12-18T08:08:35;-0.30;68.70
17415;DHT22;8825;48.086;16.426;2022-12-18T08:11:03;-0.20;68.90
17415;DHT22;8825;48.086;16.426;2022-12-18T08:13:31;-0.20;68.80
17415;DHT22;8825;48.086;16.426;2022-12-18T08:16:03;-0.10;68.90
17415;DHT22;8825;48.086;16.426;2022-12-18T08:18:33;-0.10;69.00
17415;DHT22;8825;48.086;16.426;2022-12-18T08:21:12;0.00;69.10
17415;DHT22;8825;48.086;16.426;2022-12-18T08:23:39;0.10;69.20
17415;DHT22;8825;48.086;16.426;2022-12-18T08:26:07;0.20;69.40
17415;DHT22;8825;48.086;16.426;2022-12-18T08:28:35;0.30;69.40
17415;DHT22;8825;48.086;16.426;2022-12-18T08:31:03;0.40;69.60
17415;DHT22;8825;48.086;16.426;2022-12-18T08:33:31;0.50;70.00
17415;DHT22;8825;48.086;16.426;2022-12-18T08:35:59;0.70;69.30
17415;DHT22;8825;48.086;16.426;2022-12-18T08:38:27;0.80;69.20
17415;DHT22;8825;48.086;16.426;2022-12-18T08:41:03;0.90;69.10
17415;DHT22;8825;48.086;16.426;2022-12-18T08:43:31;1.10;69.20
17415;DHT22;8825;48.086;16.426;2022-12-18T08:46:19;1.20;70.00
17415;DHT22;8825;48.086;16.426;2022-12-18T08:48:47;1.40;69.10
17415;DHT22;8825;48.086;16.426;2022-12-18T08:51:16;1.60;68.60
17415;DHT22;8825;48.086;16.426;2022-12-18T08:53:44;1.70;68.50
17415;DHT22;8825;48.086;16.426;2022-12-18T08:56:13;1.90;68.40
17415;DHT22;8825;48.086;16.426;2022-12-18T08:58:41;2.00;68.30
17415;DHT22;8825;48.086;16.426;2022-12-18T09:01:11;2.20;68.20
17415;DHT22;8825;48.086;16.426;2022-12-18T09:03:39;2.40;67.70
17415;DHT22;8825;48.086;16.426;2022-12-18T09:06:06;2.60;67.50
17415;DHT22;8825;48.086;16.426;2022-12-18T09:08:34;3.10;67.50
17415;DHT22;8825;48.086;16.426;2022-12-18T09:11:03;3.70;66.30
17415;DHT22;8825;48.086;16.426;2022-12-18T09:13:30;4.00;64.30
17415;DHT22;8825;48.086;16.426;2022-12-18T09:15:58;4.30;63.50
17415;DHT22;8825;48.086;16.426;2022-12-18T09:18:26;4.40;62.90
17415;DHT22;8825;48.086;16.426;2022-12-18T09:20:53;4.40;62.60
17415;DHT22;8825;48.086;16.426;2022-12-18T09:23:21;4.40;62.50
17415;DHT22;8825;48.086;16.426;2022-12-18T09:25:49;4.30;62.50
17415;DHT22;8825;48.086;16.426;2022-12-18T09:28:18;4.20;62.40
17415;DHT22;8825;48.086;16.426;2022-12-18T09:30:48;4.10;62.20
17415;DHT22;8825;48.086;16.426;2022-12-18T09:33:16;4.00;61.90
17415;DHT22;8825;48.086;16.426;2022-12-18T09:35:45;3.90;61.50
17415;DHT22;8825;48.086;16.426;2022-12-18T09:38:16;3.80;61.60
17415;DHT22;8825;48.086;16.426;2022-12-18T09:40:52;3.70;61.40
17415;DHT22;8825;48.086;16.426;2022-12-18T09:43:26;3.60;61.10
17415;DHT22;8825;48.086;16.426;2022-12-18T09:45:56;3.50;61.50
17415;DHT22;8825;48.086;16.426;2022-12-18T09:48:26;3.40;60.70
17415;DHT22;8825;48.086;16.426;2022-12-18T09:50:57;3.20;60.30
17415;DHT22;8825;48.086;16.426;2022-12-18T09:53:28;3.10;60.50
17415;DHT22;8825;48.086;16.426;2022-12-18T09:55:56;3.10;60.60
17415;DHT22;8825;48.086;16.426;2022-12-18T09:58:34;3.00;60.70
17415;DHT22;8825;48.086;16.426;2022-12-18T10:01:01;2.90;61.00
17415;DHT22;8825;48.086;16.426;2022-12-18T10:03:28;2.90;61.20
17415;DHT22;8825;48.086;16.426;2022-12-18T10:06:14;2.90;61.40
17415;DHT22;8825;48.086;16.426;2022-12-18T10:11:51;2.70;60.80
17415;DHT22;8825;48.086;16.426;2022-12-18T10:19:40;2.50;61.70
17415;DHT22;8825;48.086;16.426;2022-12-18T10:27:29;2.50;61.80
17415;DHT22;8825;48.086;16.426;2022-12-18T10:29:57;2.40;61.70
17415;DHT22;8825;48.086;16.426;2022-12-18T10:32:29;2.40;61.90
17415;DHT22;8825;48.086;16.426;2022-12-18T10:34:57;2.40;62.20
17415;DHT22;8825;48.086;16.426;2022-12-18T10:37:27;2.50;62.40
17415;DHT22;8825;48.086;16.426;2022-12-18T10:40:13;2.50;62.50
17415;DHT22;8825;48.086;16.426;2022-12-18T10:42:42;2.50;62.50
17415;DHT22;8825;48.086;16.426;2022-12-18T10:45:17;2.50;62.50
17415;DHT22;8825;48.086;16.426;2022-12-18T10:47:46;2.60;62.50
17415;DHT22;8825;48.086;16.426;2022-12-18T10:50:30;2.60;62.50
17415;DHT22;8825;48.086;16.426;2022-12-18T10:52:59;2.60;62.50
17415;DHT22;8825;48.086;16.426;2022-12-18T10:55:38;2.60;62.50
17415;DHT22;8825;48.086;16.426;2022-12-18T10:58:32;2.70;62.40
17415;DHT22;8825;48.086;16.426;2022-12-18T11:01:09;2.70;62.40
17415;DHT22;8825;48.086;16.426;2022-12-18T11:03:43;2.70;62.20
17415;DHT22;8825;48.086;16.426;2022-12-18T11:06:13;2.70;62.10
17415;DHT22;8825;48.086;16.426;2022-12-18T11:08:42;2.70;62.10
17415;DHT22;8825;48.086;16.426;2022-12-18T11:11:21;2.70;62.10
17415;DHT22;8825;48.086;16.426;2022-12-18T11:19:36;2.80;62.20
17415;DHT22;8825;48.086;16.426;2022-12-18T11:22:17;2.80;61.30
17415;DHT22;8825;48.086;16.426;2022-12-18T11:24:36;2.90;61.10
17415;DHT22;8825;48.086;16.426;2022-12-18T11:27:05;3.20;61.40
17415;DHT22;8825;48.086;16.426;2022-12-18T11:29:37;3.50;61.10
17415;DHT22;8825;48.086;16.426;2022-12-18T11:32:27;3.60;60.40
17415;DHT22;8825;48.086;16.426;2022-12-18T11:37:28;3.50;59.80
17415;DHT22;8825;48.086;16.426;2022-12-18T11:40:03;3.40;59.80
17415;DHT22;8825;48.086;16.426;2022-12-18T11:45:21;3.20;59.60
17415;DHT22;8825;48.086;16.426;2022-12-18T11:50:38;3.10;59.80
17415;DHT22;8825;48.086;16.426;2022-12-18T11:53:01;3.00;59.80
17415;DHT22;8825;48.086;16.426;2022-12-18T11:58:07;3.00;60.30
17415;DHT22;8825;48.086;16.426;2022-12-18T12:00:36;3.00;60.20
17415;DHT22;8825;48.086;16.426;2022-12-18T12:06:39;2.80;59.80
17415;DHT22;8825;48.086;16.426;2022-12-18T12:14:41;2.50;60.30
17415;DHT22;8825;48.086;16.426;2022-12-18T12:38:40;2.10;62.00
17415;DHT22;8825;48.086;16.426;2022-12-18T12:41:09;2.10;62.30
17415;DHT22;8825;48.086;16.426;2022-12-18T12:43:41;2.00;62.50
17415;DHT22;8825;48.086;16.426;2022-12-18T12:46:11;2.00;62.70
17415;DHT22;8825;48.086;16.426;2022-12-18T12:48:50;2.00;63.00
17415;DHT22;8825;48.086;16.426;2022-12-18T12:51:34;1.90;63.10
17415;DHT22;8825;48.086;16.426;2022-12-18T12:54:04;1.90;63.20
17415;DHT22;8825;48.086;16.426;2022-12-18T12:56:48;1.90;63.40
17415;DHT22;8825;48.086;16.426;2022-12-18T13:07:45;1.90;64.00
17415;DHT22;8825;48.086;16.426;2022-12-18T13:13:04;1.90;64.20
17415;DHT22;8825;48.086;16.426;2022-12-18T13:16:11;1.90;64.30
17415;DHT22;8825;48.086;16.426;2022-12-18T13:18:21;1.90;64.30
17415;DHT22;8825;48.086;16.426;2022-12-18T13:21:01;1.90;64.60
17415;DHT22;8825;48.086;16.426;2022-12-18T13:32:00;1.90;64.70
17415;DHT22;8825;48.086;16.426;2022-12-18T13:34:15;1.90;64.80
17415;DHT22;8825;48.086;16.426;2022-12-18T13:36:40;1.80;64.70
17415;DHT22;8825;48.086;16.426;2022-12-18T13:41:54;1.80;65.00
17415;DHT22;8825;48.086;16.426;2022-12-18T13:44:33;1.80;65.20
17415;DHT22;8825;48.086;16.426;2022-12-18T13:47:03;1.80;65.30
17415;DHT22;8825;48.086;16.426;2022-12-18T13:49:40;1.80;65.30
17415;DHT22;8825;48.086;16.426;2022-12-18T13:52:24;1.80;65.40
17415;DHT22;8825;48.086;16.426;2022-12-18T13:57:42;1.80;65.60
17415;DHT22;8825;48.086;16.426;2022-12-18T14:02:46;1.70;65.70
17415;DHT22;8825;48.086;16.426;2022-12-18T14:07:50;1.70;65.90
17415;DHT22;8825;48.086;16.426;2022-12-18T14:10:18;1.70;66.00
17415;DHT22;8825;48.086;16.426;2022-12-18T14:12:48;1.60;66.10
17415;DHT22;8825;48.086;16.426;2022-12-18T14:18:02;1.60;66.40
17415;DHT22;8825;48.086;16.426;2022-12-18T14:20:28;1.60;66.50
17415;DHT22;8825;48.086;16.426;2022-12-18T14:22:57;1.50;66.60
17415;DHT22;8825;48.086;16.426;2022-12-18T14:25:30;1.60;66.80
17415;DHT22;8825;48.086;16.426;2022-12-18T14:30:42;1.60;67.00
17415;DHT22;8825;48.086;16.426;2022-12-18T14:36:04;1.60;67.00
17415;DHT22;8825;48.086;16.426;2022-12-18T14:40:54;1.60;67.00
17415;DHT22;8825;48.086;16.426;2022-12-18T14:43:22;1.50;67.20
17415;DHT22;8825;48.086;16.426;2022-12-18T14:45:50;1.50;67.20
17415;DHT22;8825;48.086;16.426;2022-12-18T14:48:36;1.50;67.30
17415;DHT22;8825;48.086;16.426;2022-12-18T14:51:06;1.50;67.30
17415;DHT22;8825;48.086;16.426;2022-12-18T14:53:40;1.50;67.40
17415;DHT22;8825;48.086;16.426;2022-12-18T14:56:16;1.50;67.60
17415;DHT22;8825;48.086;16.426;2022-12-18T14:58:47;1.50;67.60
17415;DHT22;8825;48.086;16.426;2022-12-18T15:01:27;1.50;67.70
17415;DHT22;8825;48.086;16.426;2022-12-18T15:03:52;1.50;67.80
17415;DHT22;8825;48.086;16.426;2022-12-18T15:08:58;1.60;68.30
17415;DHT22;8825;48.086;16.426;2022-12-18T15:11:34;1.60;67.90
17415;DHT22;8825;48.086;16.426;2022-12-18T15:14:28;1.60;67.90
17415;DHT22;8825;48.086;16.426;2022-12-18T15:16:53;1.60;67.80
17415;DHT22;8825;48.086;16.426;2022-12-18T15:19:25;1.60;67.90
17415;DHT22;8825;48.086;16.426;2022-12-18T15:21:51;1.60;67.90
17415;DHT22;8825;48.086;16.426;2022-12-18T15:24:23;1.60;67.90
17415;DHT22;8825;48.086;16.426;2022-12-18T15:26:49;1.70;68.00
17415;DHT22;8825;48.086;16.426;2022-12-18T15:29:25;1.70;68.00
17415;DHT22;8825;48.086;16.426;2022-12-18T15:32:00;1.70;68.00
17415;DHT22;8825;48.086;16.426;2022-12-18T15:34:29;1.80;68.00
17415;DHT22;8825;48.086;16.426;2022-12-18T15:36:57;1.80;68.10
17415;DHT22;8825;48.086;16.426;2022-12-18T15:39:24;1.80;68.00
17415;DHT22;8825;48.086;16.426;2022-12-18T15:41:52;1.90;67.90
17415;DHT22;8825;48.086;16.426;2022-12-18T15:44:37;1.90;67.90
17415;DHT22;8825;48.086;16.426;2022-12-18T15:47:11;1.90;67.80
17415;DHT22;8825;48.086;16.426;2022-12-18T15:49:35;1.90;67.80
17415;DHT22;8825;48.086;16.426;2022-12-18T15:52:03;1.90;67.80
17415;DHT22;8825;48.086;16.426;2022-12-18T15:54:31;2.00;67.80
17415;DHT22;8825;48.086;16.426;2022-12-18T15:57:16;1.90;67.70
17415;DHT22;8825;48.086;16.426;2022-12-18T15:59:55;1.90;67.50
17415;DHT22;8825;48.086;16.426;2022-12-18T16:02:24;1.90;67.50
17415;DHT22;8825;48.086;16.426;2022-12-18T16:04:54;2.00;67.80
17415;DHT22;8825;48.086;16.426;2022-12-18T16:07:21;2.00;68.50
17415;DHT22;8825;48.086;16.426;2022-12-18T16:09:49;2.00;67.60
17415;DHT22;8825;48.086;16.426;2022-12-18T16:12:20;2.00;67.50
17415;DHT22;8825;48.086;16.426;2022-12-18T16:14:47;2.00;67.60
17415;DHT22;8825;48.086;16.426;2022-12-18T16:17:15;2.10;67.50
17415;DHT22;8825;48.086;16.426;2022-12-18T16:19:43;2.10;67.50
17415;DHT22;8825;48.086;16.426;2022-12-18T16:22:18;2.10;67.40
17415;DHT22;8825;48.086;16.426;2022-12-18T16:24:48;2.10;67.40
17415;DHT22;8825;48.086;16.426;2022-12-18T16:27:15;2.10;67.40
17415;DHT22;8825;48.086;16.426;2022-12-18T16:29:46;2.10;67.60
17415;DHT22;8825;48.086;16.426;2022-12-18T16:32:16;2.10;67.40
17415;DHT22;8825;48.086;16.426;2022-12-18T16:34:44;2.20;67.50
17415;DHT22;8825;48.086;16.426;2022-12-18T16:37:15;2.10;67.40
17415;DHT22;8825;48.086;16.426;2022-12-18T16:39:43;2.10;67.40
17415;DHT22;8825;48.086;16.426;2022-12-18T16:42:17;2.20;67.60
17415;DHT22;8825;48.086;16.426;2022-12-18T16:44:48;2.20;67.40
17415;DHT22;8825;48.086;16.426;2022-12-18T16:47:16;2.20;67.30
17415;DHT22;8825;48.086;16.426;2022-12-18T16:49:44;2.10;67.40
17415;DHT22;8825;48.086;16.426;2022-12-18T16:52:12;2.10;67.50
17415;DHT22;8825;48.086;16.426;2022-12-18T16:55:02;2.20;67.50
17415;DHT22;8825;48.086;16.426;2022-12-18T16:57:32;2.20;67.50
17415;DHT22;8825;48.086;16.426;2022-12-18T17:00:00;2.20;67.40
17415;DHT22;8825;48.086;16.426;2022-12-18T17:02:28;2.20;67.60
17415;DHT22;8825;48.086;16.426;2022-12-18T17:04:57;2.20;67.60
17415;DHT22;8825;48.086;16.426;2022-12-18T17:07:27;2.20;67.60
17415;DHT22;8825;48.086;16.426;2022-12-18T17:09:55;2.20;68.60
17415;DHT22;8825;48.086;16.426;2022-12-18T17:12:24;2.20;67.80
17415;DHT22;8825;48.086;16.426;2022-12-18T17:14:52;2.20;67.80
17415;DHT22;8825;48.086;16.426;2022-12-18T17:17:20;2.20;68.00
17415;DHT22;8825;48.086;16.426;2022-12-18T17:19:49;2.30;68.20
17415;DHT22;8825;48.086;16.426;2022-12-18T17:22:17;2.30;68.10
17415;DHT22;8825;48.086;16.426;2022-12-18T17:24:52;2.40;68.30
17415;DHT22;8825;48.086;16.426;2022-12-18T17:27:20;2.40;68.20
17415;DHT22;8825;48.086;16.426;2022-12-18T17:29:48;2.40;68.40
17415;DHT22;8825;48.086;16.426;2022-12-18T17:32:17;2.40;68.40
17415;DHT22;8825;48.086;16.426;2022-12-18T17:34:45;2.40;68.40
17415;DHT22;8825;48.086;16.426;2022-12-18T17:37:17;2.50;68.50
17415;DHT22;8825;48.086;16.426;2022-12-18T17:39:44;2.50;68.60
17415;DHT22;8825;48.086;16.426;2022-12-18T17:42:12;2.50;68.60
17415;DHT22;8825;48.086;16.426;2022-12-18T17:44:41;2.50;68.60
17415;DHT22;8825;48.086;16.426;2022-12-18T17:47:12;2.50;68.60
17415;DHT22;8825;48.086;16.426;2022-12-18T17:49:41;2.50;68.70
17415;DHT22;8825;48.086;16.426;2022-12-18T17:52:10;2.50;68.70
17415;DHT22;8825;48.086;16.426;2022-12-18T17:54:38;2.60;68.80
17415;DHT22;8825;48.086;16.426;2022-12-18T17:57:09;2.60;68.80
17415;DHT22;8825;48.086;16.426;2022-12-18T17:59:37;2.60;68.80
17415;DHT22;8825;48.086;16.426;2022-12-18T18:02:05;2.60;68.70
17415;DHT22;8825;48.086;16.426;2022-12-18T18:04:33;2.60;68.70
17415;DHT22;8825;48.086;16.426;2022-12-18T18:07:00;2.60;68.70
17415;DHT22;8825;48.086;16.426;2022-12-18T18:09:28;2.60;68.70
17415;DHT22;8825;48.086;16.426;2022-12-18T18:11:56;2.60;68.70
17415;DHT22;8825;48.086;16.426;2022-12-18T18:14:41;2.50;68.60
17415;DHT22;8825;48.086;16.426;2022-12-18T18:17:08;2.40;68.40